Time;durP1;ratioP1;P1;durP2;ratioP2;P2;SDS_P1;SDS_P2;PMS_P1;PMS_P2;Temp;Humidity;BMP_temperature;BMP_pressure;BME280_temperature;BME280_humidity;BME280_pressure;Samples;Min_cycle;Max_cycle;Signal;HPM_P1;HPM_P2
2021/07/01 00:00:20;;;;;;;6.47;5.05;;;18.20;99.90;;;;;;5058155;28;20025;-84
2021/07/01 00:02:46;;;;;;;8.95;5.80;;;18.20;99.90;;;;;;5060181;28;20017;-84
2021/07/01 00:05:15;;;;;;;10.20;6.28;;;18.20;99.90;;;;;;5072951;28;20029;-84
2021/07/01 00:07:42;;;;;;;7.90;6.38;;;18.10;99.90;;;;;;5065394;28;20031;-85
2021/07/01 00:10:12;;;;;;;9.82;7.75;;;18.00;99.90;;;;;;5059382;28;20029;-84
2021/07/01 00:12:37;;;;;;;9.95;7.03;;;18.10;99.90;;;;;;5052389;28;20435;-83
2021/07/01 00:15:07;;;;;;;11.23;6.97;;;18.00;99.90;;;;;;5070432;28;20041;-84
2021/07/01 00:17:33;;;;;;;11.43;7.40;;;18.00;99.90;;;;;;5065189;28;20029;-84
2021/07/01 00:20:00;;;;;;;10.43;7.25;;;18.00;99.90;;;;;;5075211;28;20031;-84
2021/07/01 00:22:25;;;;;;;14.32;7.88;;;18.00;99.90;;;;;;5044684;28;20025;-84
2021/07/01 00:24:51;;;;;;;10.25;6.68;;;18.00;99.90;;;;;;5057835;28;20028;-84
2021/07/01 00:27:17;;;;;;;9.77;6.25;;;17.90;99.90;;;;;;5054516;28;20139;-84
2021/07/01 00:29:42;;;;;;;9.82;6.85;;;17.90;99.90;;;;;;5066212;28;20111;-84
2021/07/01 00:32:08;;;;;;;13.63;7.63;;;17.90;99.90;;;;;;5060606;28;20028;-84
2021/07/01 00:34:34;;;;;;;9.63;6.88;;;17.90;99.90;;;;;;5065918;28;20033;-83
2021/07/01 00:37:00;;;;;;;8.32;6.60;;;17.80;99.90;;;;;;5065370;28;20025;-84
2021/07/01 00:39:25;;;;;;;8.25;6.32;;;17.80;99.90;;;;;;5059211;28;20047;-84
2021/07/01 00:41:51;;;;;;;10.15;5.90;;;17.80;99.90;;;;;;5060051;28;20204;-84
2021/07/01 00:44:17;;;;;;;12.07;6.80;;;17.70;99.90;;;;;;5065950;28;20021;-84
2021/07/01 00:46:43;;;;;;;11.20;6.72;;;17.70;99.90;;;;;;5064624;28;20036;-84
2021/07/01 00:49:11;;;;;;;9.75;6.35;;;17.70;99.90;;;;;;5060533;28;20082;-84
2021/07/01 00:51:37;;;;;;;11.88;7.30;;;17.80;99.90;;;;;;5047774;28;20097;-84
2021/07/01 00:54:03;;;;;;;11.30;7.10;;;17.80;99.90;;;;;;5065314;28;20032;-84
2021/07/01 00:56:29;;;;;;;10.05;6.50;;;17.70;99.90;;;;;;5058741;28;20058;-84
2021/07/01 00:58:55;;;;;;;10.10;6.78;;;17.70;99.90;;;;;;5081525;28;20082;-84
2021/07/01 01:01:22;;;;;;;8.95;6.40;;;17.70;99.90;;;;;;5087522;28;20031;-84
2021/07/01 01:03:48;;;;;;;9.15;6.43;;;17.70;99.90;;;;;;5084448;28;20051;-84
2021/07/01 01:06:14;;;;;;;7.47;6.10;;;17.60;99.90;;;;;;5077198;28;20118;-84
2021/07/01 01:08:40;;;;;;;8.90;6.35;;;17.60;99.90;;;;;;5085756;28;20162;-84
2021/07/01 01:11:06;;;;;;;10.20;6.63;;;17.60;99.90;;;;;;5075451;28;20021;-84
2021/07/01 01:13:32;;;;;;;11.50;6.70;;;17.60;99.90;;;;;;5081726;28;20008;-84
2021/07/01 01:16:01;;;;;;;8.82;6.72;;;17.60;99.90;;;;;;5080705;28;20516;-84
2021/07/01 01:18:27;;;;;;;7.93;6.05;;;17.50;99.90;;;;;;5079579;28;20517;-84
2021/07/01 01:20:55;;;;;;;10.63;6.85;;;17.50;99.90;;;;;;5081781;28;20374;-84
2021/07/01 01:23:21;;;;;;;9.32;6.32;;;17.50;99.90;;;;;;5085529;28;20005;-84
2021/07/01 01:25:48;;;;;;;8.43;6.95;;;17.50;99.90;;;;;;5080449;28;20032;-84
2021/07/01 01:28:15;;;;;;;13.18;7.18;;;17.40;99.90;;;;;;5078726;28;20032;-84
2021/07/01 01:30:41;;;;;;;10.65;7.10;;;17.40;99.90;;;;;;5081514;28;20387;-84
2021/07/01 01:33:08;;;;;;;10.45;7.15;;;17.40;99.90;;;;;;5087991;28;20012;-84
2021/07/01 01:35:35;;;;;;;9.73;7.28;;;17.40;99.90;;;;;;5082303;28;20152;-84
2021/07/01 01:38:01;;;;;;;10.07;7.50;;;17.40;99.90;;;;;;5082985;28;20496;-84
2021/07/01 01:40:27;;;;;;;12.63;7.53;;;17.30;99.90;;;;;;5085251;28;20186;-84
2021/07/01 01:42:53;;;;;;;10.05;7.70;;;17.30;99.90;;;;;;5080516;28;20087;-84
2021/07/01 01:45:19;;;;;;;10.43;7.30;;;17.30;99.90;;;;;;5083264;28;20422;-84
2021/07/01 01:47:49;;;;;;;11.25;7.03;;;17.30;99.90;;;;;;5084862;28;20016;-84
2021/07/01 01:50:19;;;;;;;11.52;7.82;;;17.30;99.90;;;;;;5079945;28;20034;-84
2021/07/01 01:52:46;;;;;;;9.52;6.93;;;17.20;99.90;;;;;;5073437;28;20020;-84
2021/07/01 01:55:13;;;;;;;10.95;7.50;;;17.30;99.90;;;;;;5082748;28;20090;-83
2021/07/01 01:57:47;;;;;;;9.00;7.07;;;17.20;99.90;;;;;;5075585;28;20044;-84
2021/07/01 02:00:15;;;;;;;12.25;7.45;;;17.20;99.90;;;;;;5069047;28;20035;-84
2021/07/01 02:02:41;;;;;;;13.60;7.90;;;17.20;99.90;;;;;;5050185;28;20024;-83
2021/07/01 02:05:08;;;;;;;11.15;7.60;;;17.10;99.90;;;;;;5060289;28;20389;-84
2021/07/01 02:07:34;;;;;;;12.57;7.75;;;17.10;99.90;;;;;;5043873;28;20021;-83
2021/07/01 02:10:01;;;;;;;12.95;7.28;;;17.20;99.90;;;;;;5060921;28;20046;-84
2021/07/01 02:12:27;;;;;;;12.25;7.57;;;17.10;99.90;;;;;;5065577;28;20028;-84
2021/07/01 02:14:56;;;;;;;12.80;7.88;;;17.10;99.90;;;;;;5062333;28;20033;-83
2021/07/01 02:17:22;;;;;;;12.55;8.25;;;17.10;99.90;;;;;;5067209;28;20052;-83
2021/07/01 02:19:47;;;;;;;13.45;8.32;;;17.00;99.90;;;;;;5046562;28;20453;-83
2021/07/01 02:22:13;;;;;;;12.60;8.18;;;17.00;99.90;;;;;;5068236;28;20017;-84
2021/07/01 02:24:39;;;;;;;16.23;8.52;;;17.00;99.90;;;;;;5049328;28;20027;-83
2021/07/01 02:27:05;;;;;;;12.88;8.50;;;17.00;99.90;;;;;;5069803;28;20017;-83
2021/07/01 02:29:31;;;;;;;12.13;8.52;;;17.00;99.90;;;;;;5068637;28;20532;-83
2021/07/01 02:31:57;;;;;;;15.10;8.30;;;16.90;99.90;;;;;;5058663;28;20017;-84
2021/07/01 02:34:22;;;;;;;13.40;8.50;;;16.90;99.90;;;;;;5068792;28;20089;-83
2021/07/01 02:36:48;;;;;;;12.65;8.15;;;16.90;99.90;;;;;;5056812;28;20516;-84
2021/07/01 02:39:14;;;;;;;12.18;8.48;;;16.90;99.90;;;;;;5063564;28;20112;-84
2021/07/01 02:41:39;;;;;;;14.52;8.98;;;16.90;99.90;;;;;;5063611;28;20377;-83
2021/07/01 02:44:05;;;;;;;12.63;8.57;;;16.80;99.90;;;;;;5041611;28;20071;-83
2021/07/01 02:46:32;;;;;;;12.25;8.60;;;16.90;99.90;;;;;;5056458;28;20067;-83
2021/07/01 02:48:57;;;;;;;12.85;9.25;;;16.80;99.90;;;;;;5060422;28;20122;-84
2021/07/01 02:51:23;;;;;;;15.90;9.63;;;16.80;99.90;;;;;;5063498;28;20501;-84
2021/07/01 02:53:49;;;;;;;12.55;8.88;;;16.70;99.90;;;;;;5062024;28;20119;-83
2021/07/01 02:56:15;;;;;;;16.13;9.40;;;16.70;99.90;;;;;;5056671;28;20040;-83
2021/07/01 02:58:41;;;;;;;13.63;9.20;;;16.70;99.90;;;;;;5081243;28;20051;-83
2021/07/01 03:01:07;;;;;;;15.27;10.05;;;16.70;99.90;;;;;;5084620;28;20119;-84
2021/07/01 03:03:32;;;;;;;15.20;8.98;;;16.70;99.90;;;;;;5074900;28;20246;-84
2021/07/01 03:05:58;;;;;;;14.25;9.35;;;16.70;99.90;;;;;;5080873;28;20024;-84
2021/07/01 03:08:24;;;;;;;13.40;8.60;;;16.70;99.90;;;;;;5082031;28;20605;-83
2021/07/01 03:10:49;;;;;;;15.10;9.80;;;16.60;99.90;;;;;;5082911;28;20084;-83
2021/07/01 03:13:15;;;;;;;18.40;9.10;;;16.60;99.90;;;;;;5082951;28;20023;-84
2021/07/01 03:15:41;;;;;;;13.77;9.43;;;16.60;99.90;;;;;;5086862;28;20043;-83
2021/07/01 03:18:07;;;;;;;17.10;10.15;;;16.60;99.90;;;;;;5085057;28;20024;-83
2021/07/01 03:20:33;;;;;;;15.05;9.60;;;16.60;99.90;;;;;;5088303;28;20050;-84
2021/07/01 03:22:59;;;;;;;17.38;10.82;;;16.60;99.90;;;;;;5088002;28;20036;-83
2021/07/01 03:25:24;;;;;;;12.52;9.32;;;16.60;99.90;;;;;;5089668;28;20472;-83
2021/07/01 03:27:50;;;;;;;15.57;9.98;;;16.60;99.90;;;;;;5082464;28;20105;-83
2021/07/01 03:30:16;;;;;;;14.95;9.55;;;16.50;99.90;;;;;;5079439;28;20028;-83
2021/07/01 03:32:42;;;;;;;15.10;10.15;;;16.50;99.90;;;;;;5084797;28;20023;-83
2021/07/01 03:35:08;;;;;;;17.58;11.02;;;16.50;99.90;;;;;;5087789;28;20043;-83
2021/07/01 03:37:33;;;;;;;16.20;10.02;;;16.50;99.90;;;;;;5069947;28;20013;-83
2021/07/01 03:39:59;;;;;;;16.08;10.68;;;16.50;99.90;;;;;;5077124;28;20034;-83
2021/07/01 03:42:26;;;;;;;15.27;11.15;;;16.50;99.90;;;;;;5083403;28;20024;-83
2021/07/01 03:44:51;;;;;;;15.55;10.27;;;16.50;99.90;;;;;;5070241;28;20283;-84
2021/07/01 03:47:17;;;;;;;16.65;11.27;;;16.50;99.90;;;;;;5083213;28;20048;-83
2021/07/01 03:49:43;;;;;;;18.45;11.07;;;16.50;99.90;;;;;;5082874;28;20020;-83
2021/07/01 03:52:09;;;;;;;20.52;10.32;;;16.50;99.90;;;;;;5082086;28;20020;-83
2021/07/01 03:54:35;;;;;;;15.77;11.27;;;16.50;99.90;;;;;;5075873;28;20442;-83
2021/07/01 03:57:01;;;;;;;18.85;11.25;;;16.50;99.90;;;;;;5073793;28;20120;-83
2021/07/01 03:59:27;;;;;;;19.20;11.07;;;16.50;99.90;;;;;;5068212;28;20267;-84
2021/07/01 04:01:53;;;;;;;23.92;11.27;;;16.50;99.90;;;;;;5045766;28;20670;-83
2021/07/01 04:04:19;;;;;;;17.20;11.85;;;16.50;99.90;;;;;;5062432;28;20024;-83
2021/07/01 04:06:44;;;;;;;19.48;12.05;;;16.50;99.90;;;;;;5055923;28;20021;-83
2021/07/01 04:09:10;;;;;;;22.40;12.25;;;16.50;99.90;;;;;;5057969;28;20109;-83
2021/07/01 04:11:36;;;;;;;18.90;12.65;;;16.50;99.90;;;;;;5049292;28;20142;-83
2021/07/01 04:14:03;;;;;;;20.15;12.77;;;16.40;99.90;;;;;;5066738;28;20044;-83
2021/07/01 04:16:29;;;;;;;21.95;13.23;;;16.50;99.90;;;;;;5065596;28;20020;-84
2021/07/01 04:18:54;;;;;;;21.92;13.10;;;16.50;99.90;;;;;;5068051;28;20032;-83
2021/07/01 04:21:25;;;;;;;29.05;13.70;;;16.50;99.90;;;;;;5064974;28;20027;-83
2021/07/01 04:23:51;;;;;;;24.58;13.75;;;16.40;99.90;;;;;;5048447;28;20020;-83
2021/07/01 04:26:17;;;;;;;22.33;12.75;;;16.40;99.90;;;;;;5061029;28;20406;-84
2021/07/01 04:28:43;;;;;;;23.33;13.52;;;16.30;99.90;;;;;;5047767;28;20024;-83
2021/07/01 04:31:09;;;;;;;22.55;13.20;;;16.30;99.90;;;;;;5064483;28;20112;-84
2021/07/01 04:33:35;;;;;;;19.83;12.90;;;16.40;99.90;;;;;;5058818;28;20484;-83
2021/07/01 04:36:01;;;;;;;23.52;13.63;;;16.40;99.90;;;;;;5055306;28;20037;-83
2021/07/01 04:38:26;;;;;;;19.23;12.63;;;16.40;99.90;;;;;;5059747;28;20557;-83
2021/07/01 04:40:54;;;;;;;25.25;12.98;;;16.50;99.90;;;;;;5062483;28;20025;-83
2021/07/01 04:43:20;;;;;;;23.20;13.65;;;16.40;99.90;;;;;;5043490;28;20089;-83
2021/07/01 04:45:45;;;;;;;23.52;13.10;;;16.40;99.90;;;;;;5055427;28;20029;-83
2021/07/01 04:48:11;;;;;;;19.70;12.88;;;16.40;99.90;;;;;;5060364;28;20021;-83
2021/07/01 04:50:37;;;;;;;21.77;13.68;;;16.40;99.90;;;;;;5062310;28;20484;-83
2021/07/01 04:53:03;;;;;;;24.05;14.00;;;16.40;99.90;;;;;;5059587;28;20108;-83
2021/07/01 04:55:29;;;;;;;21.65;14.02;;;16.40;99.90;;;;;;5054024;28;20036;-83
2021/07/01 04:57:55;;;;;;;24.42;14.32;;;16.40;99.90;;;;;;5058641;28;20247;-84
2021/07/01 05:00:21;;;;;;;23.63;13.80;;;16.40;99.90;;;;;;5065124;28;20029;-83
2021/07/01 05:02:46;;;;;;;19.98;13.77;;;16.40;99.90;;;;;;5065360;28;20044;-83
2021/07/01 05:05:12;;;;;;;24.73;14.10;;;16.50;99.90;;;;;;5044252;28;20043;-83
2021/07/01 05:07:42;;;;;;;24.27;14.45;;;16.50;99.90;;;;;;5064803;28;20029;-83
2021/07/01 05:10:09;;;;;;;24.38;13.85;;;16.50;99.90;;;;;;5059250;28;20024;-83
2021/07/01 05:12:35;;;;;;;21.90;13.32;;;16.60;99.90;;;;;;5035966;28;20013;-84
2021/07/01 05:15:01;;;;;;;20.33;13.07;;;16.60;99.90;;;;;;5064825;28;20541;-83
2021/07/01 05:17:26;;;;;;;21.70;13.43;;;16.60;99.90;;;;;;5071756;28;20023;-83
2021/07/01 05:19:52;;;;;;;24.65;14.48;;;16.60;99.90;;;;;;5060062;28;20032;-83
2021/07/01 05:22:17;;;;;;;21.45;13.60;;;16.60;99.90;;;;;;5053014;28;20065;-83
2021/07/01 05:24:43;;;;;;;23.67;14.10;;;16.60;99.90;;;;;;5063133;28;20016;-83
2021/07/01 05:27:09;;;;;;;19.52;13.52;;;16.70;99.90;;;;;;5052498;28;20261;-83
2021/07/01 05:29:34;;;;;;;19.77;13.48;;;16.80;99.90;;;;;;5067183;28;20098;-83
2021/07/01 05:32:00;;;;;;;22.42;13.18;;;16.80;99.90;;;;;;5063771;28;20028;-84
2021/07/01 05:34:26;;;;;;;24.42;13.68;;;16.80;99.90;;;;;;5046985;28;20071;-83
2021/07/01 05:36:51;;;;;;;20.52;13.88;;;16.90;99.90;;;;;;5064534;28;20489;-83
2021/07/01 05:39:17;;;;;;;23.02;14.70;;;16.90;99.90;;;;;;5036733;28;20532;-83
2021/07/01 05:41:43;;;;;;;23.33;13.32;;;16.80;99.90;;;;;;5061958;28;20500;-83
2021/07/01 05:44:09;;;;;;;22.02;13.57;;;16.80;99.90;;;;;;5058142;28;20043;-84
2021/07/01 05:46:34;;;;;;;20.30;13.13;;;16.80;99.90;;;;;;5062383;28;20493;-84
2021/07/01 05:49:00;;;;;;;21.05;14.45;;;16.90;99.90;;;;;;5067821;28;20028;-84
2021/07/01 05:51:28;;;;;;;19.25;13.93;;;16.90;99.90;;;;;;5060825;28;20025;-84
2021/07/01 05:56:19;;;;;;;21.30;13.82;;;16.90;99.90;;;;;;5058947;28;20505;-84
2021/07/01 05:58:45;;;;;;;23.58;14.45;;;16.90;99.90;;;;;;5079294;28;20566;-84
2021/07/01 06:01:11;;;;;;;18.90;13.32;;;17.00;99.90;;;;;;5082695;28;20029;-84
2021/07/01 06:03:36;;;;;;;21.75;12.52;;;17.10;99.90;;;;;;5075600;28;20013;-84
2021/07/01 06:06:10;;;;;;;17.35;13.27;;;17.10;99.90;;;;;;5078997;28;20092;-84
2021/07/01 06:08:36;;;;;;;20.40;12.80;;;17.10;99.90;;;;;;5078102;28;20019;-84
2021/07/01 06:11:06;;;;;;;21.20;13.32;;;17.10;99.90;;;;;;5082190;28;20023;-85
2021/07/01 06:13:36;;;;;;;23.73;12.15;;;17.10;99.90;;;;;;5061515;28;20048;-84
2021/07/01 06:16:03;;;;;;;21.52;13.57;;;17.00;99.90;;;;;;5083924;28;20432;-84
2021/07/01 06:18:30;;;;;;;17.90;12.27;;;17.10;99.90;;;;;;5085498;28;20016;-84
2021/07/01 06:20:56;;;;;;;22.75;13.13;;;17.10;99.90;;;;;;5060191;28;20024;-84
2021/07/01 06:23:22;;;;;;;18.58;12.43;;;17.20;99.90;;;;;;5081986;28;20103;-84
2021/07/01 06:25:49;;;;;;;22.52;13.00;;;17.20;99.90;;;;;;5074750;28;20026;-84
2021/07/01 06:28:15;;;;;;;22.63;13.93;;;17.30;99.90;;;;;;5076584;28;20483;-84
2021/07/01 06:30:44;;;;;;;19.25;12.68;;;17.40;99.90;;;;;;5077381;28;20024;-86
2021/07/01 06:33:11;;;;;;;17.02;12.13;;;17.50;99.90;;;;;;5081006;28;20038;-85
2021/07/01 06:35:37;;;;;;;19.27;12.57;;;17.50;99.90;;;;;;5063887;28;20063;-85
2021/07/01 06:38:09;;;;;;;18.85;12.27;;;17.60;99.90;;;;;;5079128;28;20499;-85
2021/07/01 06:40:35;;;;;;;19.25;12.70;;;17.70;99.90;;;;;;5073025;28;20025;-84
2021/07/01 06:43:02;;;;;;;16.35;11.68;;;17.80;99.90;;;;;;5079888;28;20020;-85
2021/07/01 06:45:31;;;;;;;19.20;12.18;;;17.90;99.90;;;;;;5075799;28;20021;-84
2021/07/01 06:47:57;;;;;;;20.50;12.27;;;17.90;99.90;;;;;;5072737;28;20025;-84
2021/07/01 06:50:29;;;;;;;15.73;11.60;;;18.10;99.90;;;;;;5064132;28;20035;-76
2021/07/01 06:52:56;;;;;;;19.77;12.63;;;18.00;99.90;;;;;;5074718;28;20020;-76
2021/07/01 06:55:23;;;;;;;18.42;11.77;;;18.10;99.90;;;;;;5085514;28;20043;-76
2021/07/01 06:57:49;;;;;;;17.92;12.75;;;18.10;99.90;;;;;;5063016;28;20393;-75
2021/07/01 07:00:17;;;;;;;17.40;11.05;;;18.20;99.90;;;;;;5054219;28;20040;-76
2021/07/01 07:02:44;;;;;;;16.75;10.43;;;18.40;99.90;;;;;;5054165;28;20016;-76
2021/07/01 07:05:12;;;;;;;16.40;11.73;;;18.50;99.90;;;;;;5056126;28;20103;-76
2021/07/01 07:07:43;;;;;;;17.80;11.63;;;18.60;99.90;;;;;;5056653;28;20064;-76
2021/07/01 07:10:10;;;;;;;16.27;11.32;;;18.70;99.90;;;;;;5056980;28;20051;-75
2021/07/01 07:12:44;;;;;;;15.25;11.50;;;18.90;99.90;;;;;;5056619;28;20409;-76
2021/07/01 07:15:15;;;;;;;17.67;11.85;;;18.80;99.90;;;;;;5057925;28;20155;-76
2021/07/01 07:17:42;;;;;;;19.75;11.27;;;18.80;99.90;;;;;;5063468;28;20017;-76
2021/07/01 07:20:11;;;;;;;16.25;11.00;;;18.80;99.90;;;;;;5056029;28;20499;-75
2021/07/01 07:22:40;;;;;;;14.43;11.40;;;18.80;99.90;;;;;;5058659;28;20029;-77
2021/07/01 07:25:09;;;;;;;18.27;11.50;;;18.80;99.90;;;;;;5056288;28;20071;-76
2021/07/01 07:27:38;;;;;;;15.70;12.10;;;18.70;99.90;;;;;;5058159;28;20021;-76
2021/07/01 07:30:06;;;;;;;17.65;11.77;;;18.70;99.90;;;;;;5062193;28;20370;-76
2021/07/01 07:32:32;;;;;;;19.10;11.55;;;18.80;99.90;;;;;;5056579;28;20066;-75
2021/07/01 07:34:58;;;;;;;14.95;11.13;;;18.80;99.90;;;;;;5058565;28;20032;-76
2021/07/01 07:37:28;;;;;;;16.60;11.70;;;18.90;99.90;;;;;;5061929;28;20023;-75
2021/07/01 07:39:54;;;;;;;15.35;11.88;;;19.00;99.90;;;;;;5059572;28;20028;-76
2021/07/01 07:42:20;;;;;;;16.65;11.20;;;19.20;99.90;;;;;;5055269;28;20389;-76
2021/07/01 07:44:45;;;;;;;18.30;11.43;;;19.30;99.90;;;;;;5058638;28;20029;-75
2021/07/01 07:47:13;;;;;;;16.63;12.00;;;19.20;99.90;;;;;;5058613;28;20028;-75
2021/07/01 07:49:40;;;;;;;17.45;11.38;;;19.40;99.90;;;;;;5055039;28;20373;-76
2021/07/01 07:52:11;;;;;;;20.60;12.10;;;19.40;99.90;;;;;;5067241;28;20052;-76
2021/07/01 07:54:47;;;;;;;19.17;10.88;;;19.50;99.90;;;;;;5062021;28;20443;-75
2021/07/01 07:57:14;;;;;;;15.32;11.70;;;19.50;99.90;;;;;;5064068;28;20044;-76
2021/07/01 07:59:43;;;;;;;16.55;11.30;;;19.60;99.90;;;;;;5064423;28;20025;-76
2021/07/01 08:02:27;;;;;;;18.48;11.65;;;19.70;99.90;;;;;;5066600;28;20040;-76
2021/07/01 08:04:53;;;;;;;15.68;10.75;;;19.70;99.90;;;;;;5055710;28;20389;-76
2021/07/01 08:07:20;;;;;;;16.60;11.48;;;19.70;99.90;;;;;;5068477;28;20032;-76
2021/07/01 08:09:45;;;;;;;15.23;11.05;;;19.70;99.90;;;;;;5049121;28;20090;-76
2021/07/01 08:12:16;;;;;;;13.80;10.70;;;19.80;99.90;;;;;;5044078;28;20466;-76
2021/07/01 08:14:43;;;;;;;15.40;10.90;;;19.90;99.90;;;;;;5057416;28;20021;-76
2021/07/01 08:17:12;;;;;;;13.27;10.65;;;20.00;99.90;;;;;;5046542;28;20017;-75
2021/07/01 08:19:39;;;;;;;14.25;10.38;;;20.10;99.90;;;;;;5058931;28;20540;-76
2021/07/01 08:22:05;;;;;;;17.30;11.23;;;20.30;99.90;;;;;;5065970;28;20021;-76
2021/07/01 08:24:30;;;;;;;13.70;10.57;;;20.30;99.90;;;;;;5060185;28;20103;-76
2021/07/01 08:26:57;;;;;;;22.00;11.85;;;20.40;99.90;;;;;;5067807;28;20572;-76
2021/07/01 08:29:24;;;;;;;14.75;11.73;;;20.40;99.90;;;;;;5071512;28;20016;-76
2021/07/01 08:31:50;;;;;;;15.52;12.18;;;20.40;99.90;;;;;;5065931;28;20116;-75
2021/07/01 08:34:21;;;;;;;21.40;13.13;;;20.20;99.90;;;;;;5065512;28;20125;-75
2021/07/01 08:36:48;;;;;;;16.13;12.00;;;20.10;99.90;;;;;;5065132;28;20035;-76
2021/07/01 08:39:14;;;;;;;17.75;12.45;;;20.00;99.90;;;;;;5059032;28;20017;-76
2021/07/01 08:41:44;;;;;;;16.58;10.77;;;19.90;99.90;;;;;;5059144;28;20025;-76
2021/07/01 08:44:21;;;;;;;17.13;11.50;;;20.00;99.90;;;;;;5058860;28;20104;-76
2021/07/01 08:47:07;;;;;;;17.10;12.30;;;20.00;99.90;;;;;;5059737;28;20103;-75
2021/07/01 08:49:37;;;;;;;18.00;12.30;;;19.90;99.90;;;;;;5055899;28;20031;-76
2021/07/01 08:52:04;;;;;;;18.50;12.73;;;19.90;99.90;;;;;;5061048;28;20575;-76
2021/07/01 08:54:38;;;;;;;16.85;12.07;;;20.00;99.90;;;;;;5065477;28;20036;-76
2021/07/01 08:57:10;;;;;;;17.98;11.77;;;20.00;99.90;;;;;;5063003;28;20586;-75
2021/07/01 08:59:42;;;;;;;16.70;11.77;;;20.10;99.90;;;;;;5057061;28;20021;-76
2021/07/01 09:02:11;;;;;;;15.63;11.77;;;20.20;99.90;;;;;;5041210;28;20461;-76
2021/07/01 09:04:49;;;;;;;20.75;11.90;;;20.10;99.90;;;;;;5064989;28;20670;-76
2021/07/01 09:07:21;;;;;;;16.75;12.60;;;20.30;99.90;;;;;;5059769;28;20013;-74
2021/07/01 09:09:53;;;;;;;15.60;11.63;;;20.40;99.90;;;;;;5058176;28;20110;-76
2021/07/01 09:12:25;;;;;;;20.88;11.75;;;20.40;99.90;;;;;;5067006;28;20260;-73
2021/07/01 09:15:04;;;;;;;15.25;11.25;;;20.40;99.90;;;;;;5057952;28;20071;-75
2021/07/01 09:17:32;;;;;;;17.77;10.90;;;20.50;99.90;;;;;;5067997;28;20050;-75
2021/07/01 09:20:00;;;;;;;18.15;12.50;;;20.70;99.90;;;;;;5055164;28;20029;-74
2021/07/01 09:22:28;;;;;;;16.48;11.38;;;20.80;99.90;;;;;;5063462;28;20390;-74
2021/07/01 09:24:54;;;;;;;16.40;12.32;;;20.80;99.90;;;;;;5061914;28;20035;-74
2021/07/01 09:27:21;;;;;;;15.65;11.15;;;20.80;99.90;;;;;;5057106;28;20017;-75
2021/07/01 09:29:48;;;;;;;14.05;10.88;;;20.80;99.90;;;;;;5060403;28;20097;-87
2021/07/01 09:32:16;;;;;;;14.38;11.35;;;21.10;99.90;;;;;;5059158;28;20021;-89
2021/07/01 09:34:43;;;;;;;17.75;12.38;;;21.30;99.90;;;;;;5060314;28;20029;-84
2021/07/01 09:37:09;;;;;;;17.48;13.05;;;21.40;99.90;;;;;;5049696;28;20121;-84
2021/07/01 09:39:36;;;;;;;22.33;16.77;;;21.20;99.90;;;;;;5052659;28;20023;-84
2021/07/01 09:42:03;;;;;;;21.80;17.02;;;20.80;99.90;;;;;;5064051;28;20031;-85
2021/07/01 09:44:32;;;;;;;23.17;16.45;;;20.30;99.90;;;;;;5039523;28;20095;-84
2021/07/01 09:46:59;;;;;;;18.23;15.57;;;20.20;99.90;;;;;;5060361;28;20021;-85
2021/07/01 09:49:41;;;;;;;20.08;16.23;;;20.10;99.90;;;;;;5064406;28;20017;-84
2021/07/01 09:52:11;;;;;;;18.75;15.43;;;20.00;99.90;;;;;;5062720;28;20024;-84
2021/07/01 09:54:40;;;;;;;20.40;15.45;;;20.20;99.90;;;;;;5057126;28;20531;-84
2021/07/01 09:57:18;;;;;;;25.73;19.65;;;20.30;99.90;;;;;;5057709;28;20037;-84
2021/07/01 09:59:53;;;;;;;22.23;18.38;;;20.30;99.90;;;;;;5046314;28;20028;-84
2021/07/01 10:02:22;;;;;;;24.15;17.65;;;20.30;99.90;;;;;;5058279;28;20036;-84
2021/07/01 10:04:49;;;;;;;26.23;18.67;;;20.20;99.90;;;;;;5060188;28;20508;-84
2021/07/01 10:07:22;;;;;;;25.02;17.77;;;20.30;99.90;;;;;;5065213;28;20029;-84
2021/07/01 10:09:54;;;;;;;20.73;16.83;;;20.40;99.90;;;;;;5053165;28;20025;-84
2021/07/01 10:12:25;;;;;;;18.58;16.20;;;20.50;99.90;;;;;;5045815;28;20075;-84
2021/07/01 10:14:55;;;;;;;21.30;14.23;;;20.50;99.90;;;;;;5064680;28;20067;-84
2021/07/01 10:17:22;;;;;;;22.27;15.88;;;20.60;99.90;;;;;;5050172;28;20120;-84
2021/07/01 10:19:49;;;;;;;18.23;13.38;;;20.90;99.90;;;;;;5067484;28;20029;-84
2021/07/01 10:22:18;;;;;;;17.15;14.68;;;20.90;99.90;;;;;;5069651;28;20025;-84
2021/07/01 10:24:58;;;;;;;18.02;14.60;;;21.00;99.90;;;;;;5059885;28;20669;-84
2021/07/01 10:27:33;;;;;;;21.02;14.68;;;21.10;99.90;;;;;;5063386;28;20544;-84
2021/07/01 10:30:01;;;;;;;20.58;12.52;;;21.20;99.90;;;;;;5058548;28;20013;-84
2021/07/01 10:32:47;;;;;;;16.55;13.13;;;21.40;99.90;;;;;;5050290;28;20028;-84
2021/07/01 10:35:25;;;;;;;17.55;13.88;;;21.60;99.90;;;;;;5056402;28;20093;-84
2021/07/01 10:38:11;;;;;;;19.40;14.13;;;21.90;99.90;;;;;;5064223;28;20028;-83
2021/07/01 10:40:43;;;;;;;16.20;13.30;;;21.90;99.90;;;;;;5048668;28;20016;-84
2021/07/01 10:43:10;;;;;;;20.45;14.65;;;21.90;99.90;;;;;;5056641;28;20389;-84
2021/07/01 10:45:36;;;;;;;15.73;13.88;;;22.10;99.90;;;;;;5050111;28;20025;-84
2021/07/01 10:48:16;;;;;;;19.48;15.68;;;22.30;99.90;;;;;;5054360;28;20302;-84
2021/07/01 10:50:43;;;;;;;22.60;14.73;;;22.20;99.90;;;;;;5043625;28;20024;-84
2021/07/01 10:53:30;;;;;;;15.18;12.43;;;22.10;99.90;;;;;;5058728;28;20036;-84
2021/07/01 10:56:03;;;;;;;20.73;14.40;;;22.00;99.90;;;;;;5032285;28;20048;-84
2021/07/01 10:58:30;;;;;;;19.98;14.27;;;22.20;99.90;;;;;;5063758;28;20041;-85
2021/07/01 11:00:57;;;;;;;16.52;12.32;;;22.30;99.90;;;;;;5046218;28;20032;-85
2021/07/01 11:03:26;;;;;;;17.52;12.50;;;22.70;99.90;;;;;;5061351;28;20023;-84
2021/07/01 11:05:52;;;;;;;14.40;12.13;;;22.70;99.90;;;;;;5054836;28;20020;-83
2021/07/01 11:08:26;;;;;;;21.05;18.25;;;22.50;99.90;;;;;;5069427;28;20481;-83
2021/07/01 11:10:53;;;;;;;20.52;16.13;;;22.30;99.90;;;;;;5069137;28;20158;-86
2021/07/01 11:13:19;;;;;;;24.88;15.82;;;22.20;99.90;;;;;;5065105;28;20032;-83
2021/07/01 11:16:01;;;;;;;22.00;14.18;;;22.40;99.90;;;;;;5070246;28;20289;-84
2021/07/01 11:18:42;;;;;;;18.13;13.13;;;22.50;99.90;;;;;;5057347;28;20029;-76
2021/07/01 11:21:09;;;;;;;18.02;13.70;;;22.60;99.90;;;;;;5049469;28;20363;-76
2021/07/01 11:23:36;;;;;;;14.68;11.85;;;22.50;99.90;;;;;;5055030;28;20032;-76
2021/07/01 11:26:02;;;;;;;16.95;12.95;;;22.70;99.90;;;;;;5039649;28;20164;-77
2021/07/01 11:28:31;;;;;;;18.70;14.20;;;22.80;99.90;;;;;;5063408;28;20025;-76
2021/07/01 11:31:01;;;;;;;16.35;13.63;;;22.80;99.90;;;;;;5059690;28;20028;-76
2021/07/01 11:33:28;;;;;;;20.98;11.55;;;22.70;99.90;;;;;;5055261;28;20106;-77
2021/07/01 11:36:15;;;;;;;13.82;11.25;;;22.70;99.90;;;;;;5060461;28;20044;-76
2021/07/01 11:38:41;;;;;;;15.85;9.63;;;22.70;99.90;;;;;;5063252;28;20518;-76
2021/07/01 11:41:07;;;;;;;10.18;8.55;;;22.90;99.90;;;;;;5059057;28;20065;-76
2021/07/01 11:43:37;;;;;;;14.15;9.48;;;22.80;99.90;;;;;;5055203;28;20052;-76
2021/07/01 11:46:03;;;;;;;11.68;8.75;;;22.80;99.90;;;;;;5042695;28;20470;-76
2021/07/01 11:48:31;;;;;;;15.40;10.15;;;22.90;99.90;;;;;;5063536;28;20021;-74
2021/07/01 11:50:59;;;;;;;14.63;10.40;;;22.80;99.90;;;;;;5055252;28;20024;-74
2021/07/01 11:53:26;;;;;;;12.13;10.02;;;22.80;99.90;;;;;;5057043;28;20107;-75
2021/07/01 11:55:57;;;;;;;11.45;7.85;;;23.00;99.90;;;;;;5063093;28;20492;-75
2021/07/01 11:58:23;;;;;;;11.10;8.88;;;23.00;99.90;;;;;;5060326;28;20051;-75
2021/07/01 12:00:49;;;;;;;15.30;9.70;;;23.10;99.90;;;;;;5055262;28;20040;-75
2021/07/01 12:03:14;;;;;;;11.20;8.48;;;23.00;99.90;;;;;;5062778;28;20114;-75
2021/07/01 12:05:49;;;;;;;10.65;8.25;;;23.10;99.90;;;;;;5048938;28;20029;-74
2021/07/01 12:08:16;;;;;;;13.82;9.90;;;23.20;99.90;;;;;;5061682;28;20404;-75
2021/07/01 12:10:44;;;;;;;10.82;7.85;;;23.30;99.90;;;;;;5059027;28;20025;-74
2021/07/01 12:13:31;;;;;;;12.48;7.65;;;23.30;99.90;;;;;;5066124;28;20021;-74
2021/07/01 12:16:02;;;;;;;12.40;8.27;;;23.40;99.90;;;;;;5067321;28;20033;-74
2021/07/01 12:18:50;;;;;;;10.15;7.13;;;23.60;99.90;;;;;;5061540;28;20047;-75
2021/07/01 12:21:31;;;;;;;9.32;7.93;;;23.70;99.90;;;;;;5056188;28;20016;-75
2021/07/01 12:24:00;;;;;;;13.60;7.93;;;24.20;99.90;;;;;;5053065;28;20104;-75
2021/07/01 12:26:52;;;;;;;10.50;7.38;;;24.40;99.90;;;;;;5067348;28;20017;-74
2021/07/01 12:29:22;;;;;;;12.15;6.40;;;24.40;99.90;;;;;;5068559;28;20041;-75
2021/07/01 12:31:48;;;;;;;8.98;5.75;;;24.70;99.90;;;;;;5069978;28;20149;-75
2021/07/01 12:34:21;;;;;;;7.75;6.05;;;24.70;99.90;;;;;;5070646;28;20213;-75
2021/07/01 12:37:03;;;;;;;8.88;5.93;;;25.00;99.90;;;;;;5065926;28;20464;-75